createdAt,value
2023-08-07T00:01:02.201Z,13.30
2023-08-07T00:05:04.125Z,13.28
2023-08-07T00:09:06.993Z,13.25
2023-08-07T00:13:08.515Z,13.34
2023-08-07T00:17:10.033Z,13.26
2023-08-07T00:21:11.580Z,13.26
2023-08-07T00:25:14.485Z,13.26
2023-08-07T00:29:15.994Z,13.31
2023-08-07T00:33:17.519Z,13.30
2023-08-07T00:37:19.043Z,13.23
2023-08-07T00:41:21.954Z,13.27
2023-08-07T00:45:23.528Z,13.24
2023-08-07T00:49:25.290Z,13.20
2023-08-07T00:53:27.179Z,13.21
2023-08-07T00:57:31.461Z,13.16
2023-08-07T01:01:33.293Z,13.13
2023-08-07T01:05:35.415Z,13.11
2023-08-07T01:09:37.259Z,13.11
2023-08-07T01:13:49.606Z,13.03
2023-08-07T01:17:53.319Z,12.95
2023-08-07T01:22:06.872Z,12.96
2023-08-07T01:26:08.528Z,12.91
2023-08-07T01:30:17.162Z,12.88
2023-08-07T01:34:21.834Z,12.94
2023-08-07T01:38:27.910Z,12.91
2023-08-07T01:42:29.469Z,12.96
2023-08-07T01:46:31.029Z,12.98
2023-08-07T01:50:32.768Z,12.92
2023-08-07T01:54:35.635Z,12.93
2023-08-07T01:58:37.143Z,13.00
2023-08-07T02:02:39.407Z,13.07
2023-08-07T02:06:41.067Z,13.02
2023-08-07T02:10:43.988Z,13.02
2023-08-07T02:14:45.565Z,13.06
2023-08-07T02:18:47.080Z,13.11
2023-08-07T02:22:48.587Z,13.10
2023-08-07T02:26:51.471Z,13.05
2023-08-07T02:30:52.989Z,13.03
2023-08-07T02:34:54.548Z,13.03
2023-08-07T02:38:56.061Z,13.09
2023-08-07T02:42:58.957Z,13.10
2023-08-07T02:47:00.488Z,13.13
2023-08-07T02:51:01.985Z,13.07
2023-08-07T02:55:03.953Z,13.05
2023-08-07T02:59:06.803Z,13.08
2023-08-07T03:03:08.309Z,13.04
2023-08-07T03:07:09.817Z,12.74
2023-08-07T03:11:11.365Z,12.59
2023-08-07T03:15:14.427Z,12.49
2023-08-07T03:19:15.938Z,12.43
2023-08-07T03:23:17.439Z,12.36
2023-08-07T03:27:18.969Z,12.38
2023-08-07T03:31:21.928Z,12.32
2023-08-07T03:35:23.585Z,12.35
2023-08-07T03:39:25.078Z,12.25
2023-08-07T03:43:26.591Z,12.22
2023-08-07T03:47:29.562Z,12.24
2023-08-07T03:51:31.175Z,12.28
2023-08-07T03:55:32.748Z,12.33
2023-08-07T03:59:34.248Z,12.48
2023-08-07T04:03:37.139Z,12.45
2023-08-07T04:07:38.706Z,12.46
2023-08-07T04:11:41.391Z,12.52
2023-08-07T04:15:42.935Z,12.53
2023-08-07T04:19:45.855Z,12.68
2023-08-07T04:23:47.374Z,12.70
2023-08-07T04:27:48.907Z,12.72
2023-08-07T04:31:50.414Z,12.73
2023-08-07T04:35:53.278Z,12.74
2023-08-07T04:39:54.826Z,12.76
2023-08-07T04:43:56.355Z,12.77
2023-08-07T04:47:57.954Z,12.82
2023-08-07T04:52:07.214Z,12.88
2023-08-07T04:56:14.558Z,12.86
2023-08-07T05:00:16.736Z,12.95
2023-08-07T05:04:18.296Z,12.89
2023-08-07T05:08:21.164Z,13.06
2023-08-07T05:12:22.765Z,13.00
2023-08-07T05:16:24.310Z,13.06
2023-08-07T05:20:25.921Z,13.10
2023-08-07T05:24:28.781Z,13.06
2023-08-07T05:28:30.318Z,13.09
2023-08-07T05:32:31.843Z,13.09
2023-08-07T05:36:33.437Z,13.22
2023-08-07T05:40:36.295Z,13.23
2023-08-07T05:44:37.849Z,13.31
2023-08-07T05:48:39.372Z,13.31
2023-08-07T05:52:40.877Z,13.25
2023-08-07T05:56:44.136Z,13.27
2023-08-07T06:00:45.769Z,13.31
2023-08-07T06:04:47.297Z,13.26
2023-08-07T06:08:48.804Z,13.29
2023-08-07T06:12:51.687Z,13.41
2023-08-07T06:16:53.433Z,13.51
2023-08-07T06:20:54.962Z,13.46
2023-08-07T06:24:56.461Z,13.41
2023-08-07T06:28:59.321Z,13.32
2023-08-07T06:33:00.849Z,13.38
2023-08-07T06:37:02.405Z,13.51
2023-08-07T06:41:04.283Z,13.51
2023-08-07T06:45:08.197Z,13.63
2023-08-07T06:49:09.707Z,13.72
2023-08-07T06:53:11.268Z,13.81
2023-08-07T06:57:12.788Z,13.91
2023-08-07T07:01:15.701Z,13.96
2023-08-07T07:05:18.992Z,13.99
2023-08-07T07:09:22.269Z,13.96
2023-08-07T07:13:23.776Z,13.97
2023-08-07T07:17:26.656Z,14.15
2023-08-07T07:21:28.181Z,14.04
2023-08-07T07:25:29.715Z,14.01
2023-08-07T07:29:31.263Z,14.15
2023-08-07T07:33:34.111Z,14.14
2023-08-07T07:37:35.663Z,14.31
2023-08-07T07:41:37.237Z,14.35
2023-08-07T07:45:38.791Z,14.48
2023-08-07T07:49:46.084Z,14.46
2023-08-07T07:53:54.750Z,14.49
2023-08-07T07:58:02.578Z,14.81
2023-08-07T08:02:04.373Z,14.75
2023-08-07T08:06:07.367Z,14.72
2023-08-07T08:10:09.858Z,14.75
2023-08-07T08:14:11.387Z,14.94
2023-08-07T08:18:13.206Z,15.05
2023-08-07T08:22:16.215Z,15.17
2023-08-07T08:26:17.784Z,15.28
2023-08-07T08:30:19.371Z,15.51
2023-08-07T08:34:21.082Z,15.46
2023-08-07T08:38:24.007Z,15.56
2023-08-07T08:42:25.826Z,15.56
2023-08-07T08:46:30.314Z,15.73
2023-08-07T08:50:33.544Z,16.33
2023-08-07T08:54:37.165Z,16.19
2023-08-07T08:58:39.277Z,15.96
2023-08-07T09:02:41.134Z,15.76
2023-08-07T09:06:44.477Z,15.83
2023-08-07T09:10:47.669Z,15.93
2023-08-07T09:14:53.843Z,16.14
2023-08-07T09:18:55.418Z,16.05
2023-08-07T09:22:56.991Z,15.81
2023-08-07T09:26:59.971Z,15.67
2023-08-07T09:31:01.677Z,16.21
2023-08-07T09:35:03.893Z,16.68
2023-08-07T09:39:05.652Z,16.52
2023-08-07T09:43:08.638Z,15.95
2023-08-07T09:47:13.991Z,15.91
2023-08-07T09:51:15.550Z,16.13
2023-08-07T09:55:17.202Z,16.87
2023-08-07T09:59:20.180Z,17.02
2023-08-07T10:03:22.944Z,16.33
2023-08-07T10:07:24.915Z,16.00
2023-08-07T10:11:27.059Z,16.29
2023-08-07T10:15:30.868Z,16.47
2023-08-07T10:19:32.501Z,16.78
2023-08-07T10:23:35.992Z,16.60
2023-08-07T10:27:41.107Z,16.65
2023-08-07T10:31:45.039Z,16.87
2023-08-07T10:35:47.887Z,17.25
2023-08-07T10:40:02.637Z,18.15
2023-08-07T10:44:04.217Z,17.59
2023-08-07T10:48:09.381Z,15.95
2023-08-07T10:52:12.457Z,15.79
2023-08-07T10:56:17.427Z,15.80
2023-08-07T11:00:26.597Z,15.99
2023-08-07T11:04:29.638Z,15.78
2023-08-07T11:08:31.613Z,16.01
2023-08-07T11:12:33.156Z,16.08
2023-08-07T11:16:34.970Z,15.81
2023-08-07T11:20:38.062Z,15.53
2023-08-07T11:24:39.748Z,15.64
2023-08-07T11:28:41.352Z,15.48
2023-08-07T11:32:43.655Z,15.00
2023-08-07T11:36:46.986Z,14.50
2023-08-07T11:40:48.591Z,13.92
2023-08-07T11:44:50.161Z,13.83
2023-08-07T11:48:53.330Z,13.95
2023-08-07T11:52:56.274Z,13.96
2023-08-07T11:56:57.954Z,13.82
2023-08-07T12:00:59.920Z,13.83
2023-08-07T12:05:01.499Z,14.46
2023-08-07T12:09:04.540Z,14.82
2023-08-07T12:13:09.197Z,15.24
2023-08-07T12:17:10.748Z,15.91
2023-08-07T12:21:14.220Z,16.25
2023-08-07T12:25:17.141Z,15.99
2023-08-07T12:29:18.670Z,15.80
2023-08-07T12:33:20.708Z,15.74
2023-08-07T12:37:22.212Z,15.64
2023-08-07T12:49:34.143Z,16.59
2023-08-07T12:53:36.773Z,16.15
2023-08-07T12:57:42.091Z,15.68
2023-08-07T13:01:43.661Z,15.19
2023-08-07T13:05:45.251Z,14.98
2023-08-07T13:09:46.827Z,14.91
2023-08-07T13:13:49.688Z,16.56
2023-08-07T13:17:51.278Z,17.79
2023-08-07T13:21:52.927Z,17.05
2023-08-07T13:25:54.468Z,16.16
2023-08-07T13:29:57.378Z,16.10
2023-08-07T13:33:58.911Z,15.75
2023-08-07T13:38:00.474Z,15.42
2023-08-07T13:42:02.001Z,14.90
2023-08-07T13:46:04.903Z,14.68
2023-08-07T13:50:07.908Z,14.55
2023-08-07T13:54:09.491Z,14.42
2023-08-07T13:58:12.172Z,14.21
2023-08-07T14:02:15.034Z,13.94
2023-08-07T14:06:16.598Z,13.73
2023-08-07T14:10:18.165Z,13.44
2023-08-07T14:14:19.701Z,13.36
2023-08-07T14:18:22.579Z,13.31
2023-08-07T14:22:24.187Z,13.44
2023-08-07T14:26:26.772Z,13.69
2023-08-07T14:30:28.325Z,14.18
2023-08-07T14:34:31.240Z,14.74
2023-08-07T14:38:32.837Z,15.16
2023-08-07T14:42:34.696Z,14.96
2023-08-07T14:46:36.268Z,14.63
2023-08-07T14:50:39.196Z,14.63
2023-08-07T14:54:40.726Z,15.08
2023-08-07T14:58:42.432Z,14.83
2023-08-07T15:02:44.104Z,14.61
2023-08-07T15:06:47.959Z,14.45
2023-08-07T15:10:52.378Z,14.58
2023-08-07T15:14:54.015Z,14.59
2023-08-07T15:18:55.545Z,14.46
2023-08-07T15:22:58.467Z,14.31
2023-08-07T15:27:02.402Z,14.14
2023-08-07T15:31:04.274Z,14.26
2023-08-07T15:35:06.324Z,14.44
2023-08-07T15:39:09.190Z,14.23
2023-08-07T15:43:10.793Z,13.99
2023-08-07T15:47:12.352Z,13.76
2023-08-07T15:51:13.971Z,13.44
2023-08-07T15:55:16.864Z,13.18
2023-08-07T15:59:18.402Z,13.06
2023-08-07T16:03:20.274Z,12.90
2023-08-07T16:07:21.816Z,12.76
2023-08-07T16:11:24.941Z,12.62
2023-08-07T16:15:26.884Z,12.63
2023-08-07T16:19:28.439Z,12.82
2023-08-07T16:23:30.135Z,12.81
2023-08-07T16:27:33.394Z,12.79
2023-08-07T16:31:35.045Z,13.24
2023-08-07T16:35:36.929Z,13.25
2023-08-07T16:39:38.473Z,13.16
2023-08-07T16:43:41.387Z,13.10
2023-08-07T16:47:43.014Z,13.03
2023-08-07T16:51:45.638Z,13.02
2023-08-07T16:55:47.174Z,13.12
2023-08-07T16:59:50.069Z,13.09
2023-08-07T17:03:51.591Z,13.02
2023-08-07T17:07:53.103Z,13.10
2023-08-07T17:11:54.637Z,13.07
2023-08-07T17:15:58.151Z,13.11
2023-08-07T17:19:59.748Z,13.10
2023-08-07T17:24:01.313Z,12.90
2023-08-07T17:28:03.001Z,12.80
2023-08-07T17:32:07.059Z,12.79
2023-08-07T17:36:08.625Z,12.78
2023-08-07T17:40:11.430Z,12.75
2023-08-07T17:44:13.003Z,12.76
2023-08-07T17:48:15.899Z,12.78
2023-08-07T17:52:17.452Z,12.85
2023-08-07T17:56:19.007Z,12.85
2023-08-07T18:00:20.753Z,12.83
2023-08-07T18:04:23.697Z,12.90
2023-08-07T18:08:25.375Z,12.88
2023-08-07T18:12:26.946Z,12.79
2023-08-07T18:16:28.474Z,12.70
2023-08-07T18:20:31.374Z,12.65
2023-08-07T18:24:32.939Z,12.51
2023-08-07T18:28:34.520Z,12.33
2023-08-07T18:32:36.085Z,12.21
2023-08-07T18:36:38.997Z,12.13
2023-08-07T18:40:40.525Z,12.05
2023-08-07T18:44:42.049Z,11.91
2023-08-07T18:48:43.577Z,11.72
2023-08-07T18:52:46.440Z,11.72
2023-08-07T18:56:47.965Z,11.66
2023-08-07T19:00:49.507Z,11.62
2023-08-07T19:04:51.068Z,11.52
2023-08-07T19:08:53.965Z,11.42
2023-08-07T19:12:55.492Z,11.52
2023-08-07T19:16:57.317Z,11.44
2023-08-07T19:20:59.424Z,11.49
2023-08-07T19:25:02.292Z,11.51
2023-08-07T19:29:03.888Z,11.62
2023-08-07T19:33:05.789Z,11.61
2023-08-07T19:37:07.330Z,11.54
2023-08-07T19:41:10.211Z,11.60
2023-08-07T19:45:11.979Z,11.56
2023-08-07T19:49:13.514Z,11.70
2023-08-07T19:53:15.134Z,11.83
2023-08-07T19:57:18.012Z,11.81
2023-08-07T20:01:19.628Z,11.71
2023-08-07T20:05:21.214Z,11.59
2023-08-07T20:09:22.781Z,11.65
2023-08-07T20:13:25.775Z,11.73
2023-08-07T20:17:27.404Z,11.83
2023-08-07T20:21:29.000Z,11.91
2023-08-07T20:25:30.530Z,12.01
2023-08-07T20:29:33.417Z,12.12
2023-08-07T20:33:34.957Z,12.09
2023-08-07T20:37:36.564Z,12.01
2023-08-07T20:41:38.129Z,11.88
2023-08-07T20:45:41.120Z,11.80
2023-08-07T20:49:42.684Z,11.93
2023-08-07T20:53:46.065Z,12.10
2023-08-07T20:57:48.920Z,12.06
2023-08-07T21:01:51.806Z,12.00
2023-08-07T21:05:53.407Z,12.02
2023-08-07T21:09:54.925Z,12.05
2023-08-07T21:13:56.951Z,12.04
2023-08-07T21:17:59.912Z,12.20
2023-08-07T21:22:01.616Z,12.26
2023-08-07T21:26:03.149Z,12.44
2023-08-07T21:30:05.512Z,12.41
2023-08-07T21:34:08.368Z,12.33
2023-08-07T21:38:09.888Z,12.35
2023-08-07T21:42:11.415Z,12.30
2023-08-07T21:46:13.005Z,12.38
2023-08-07T21:50:16.012Z,12.25
2023-08-07T21:54:17.581Z,12.19
2023-08-07T21:58:19.112Z,12.18
2023-08-07T22:02:20.638Z,12.11
2023-08-07T22:06:23.507Z,12.01
2023-08-07T22:10:25.182Z,12.01
2023-08-07T22:14:26.700Z,11.85
2023-08-07T22:18:28.235Z,11.76
2023-08-07T22:22:31.151Z,11.67
2023-08-07T22:26:32.717Z,11.65
2023-08-07T22:30:34.476Z,11.67
2023-08-07T22:34:35.987Z,11.67
2023-08-07T22:38:38.968Z,11.70
2023-08-07T22:42:40.511Z,11.60
2023-08-07T22:46:42.027Z,11.62
2023-08-07T22:50:43.837Z,11.60
2023-08-07T22:54:46.736Z,11.55
2023-08-07T22:58:48.973Z,11.47
2023-08-07T23:02:50.545Z,11.61
2023-08-07T23:06:52.245Z,11.61
2023-08-07T23:10:55.117Z,11.61
2023-08-07T23:14:56.683Z,11.58
2023-08-07T23:18:58.220Z,11.53
2023-08-07T23:22:59.750Z,11.50
2023-08-07T23:27:02.792Z,11.38
2023-08-07T23:31:04.311Z,11.40
2023-08-07T23:35:06.070Z,11.34
2023-08-07T23:39:07.608Z,11.28
2023-08-07T23:43:10.496Z,11.26
2023-08-07T23:47:12.027Z,11.31
2023-08-07T23:51:13.552Z,11.13
2023-08-07T23:55:15.277Z,11.00
2023-08-07T23:59:18.221Z,10.98
